Terminal Aerodrome Forecast
Issued by NWS

Home | Current Version | Previous Version | Text Only | Print | Product List | Glossary On
Versions: 1 2 3 4 5 6 7 8 9 10 11 12 13 14
000
FTUS44 KSJT 161443 AAA
TAFBBD
TAF AMD
KBBD 161443Z 1615/1712 18014KT P6SM BKN015 BKN250
     FM161700 15010KT P6SM SCT040 BKN100
      AMD NOT SKED=

USA.gov is the U.S. government's official web portal to all federal, state and local government web resources and services.